CRW2 weather

Redwater (Heliworks) Heliport
Alberta, Canada

Public forecast

Using degrees Celsius for public forecast. Weather courtesy of forecast.io.

METAR (pilot weather report)

Closest report is Edmonton (CFB Namao) Heliport, 20.0 nm (37.0 km) SW. Retrieved 2019/07/22 19:00 UTC (30 minutes ago):

CYED 221900Z 18013G19KT 15SM FEW250 24/13 A3009 RMK CI2 DA3836FT SLP190

TAF (pilot weather forecast)

Closest forecast is Edmonton (CFB Namao) Heliport, 20.0 nm (37.0 km) SW. Retrieved 2019/07/22 18:33 UTC (57 minutes ago):

TAF CYED 221730Z 2218/2306 18008G18KT P6SM FEW250 BECMG 2300/2302 13005KT RMK NXT FCST BY 230000Z